createdAt,value
2023-05-06T00:05:58.457Z,2.00
2023-05-06T00:24:34.072Z,2.90
2023-05-06T00:43:14.239Z,1.70
2023-05-06T01:01:53.111Z,2.60
2023-05-06T01:20:36.834Z,1.40
2023-05-06T01:39:16.173Z,2.60
2023-05-06T01:57:55.562Z,2.60
2023-05-06T02:16:36.628Z,2.80
2023-05-06T02:35:16.890Z,1.90
2023-05-06T02:53:58.918Z,1.30
2023-05-06T03:12:38.647Z,1.90
2023-05-06T03:31:20.434Z,1.10
2023-05-06T03:50:09.355Z,1.70
2023-05-06T04:27:20.281Z,1.40
2023-05-06T04:45:56.937Z,2.20
2023-05-06T05:04:39.565Z,1.90
2023-05-06T05:23:15.436Z,1.40
2023-05-06T05:41:56.255Z,1.30
2023-05-06T06:00:39.490Z,2.30
2023-05-06T06:19:21.106Z,1.70
2023-05-06T06:38:07.891Z,2.00
2023-05-06T07:34:10.517Z,1.50
2023-05-06T07:52:47.798Z,1.20
2023-05-06T08:11:31.646Z,1.50
2023-05-06T08:30:07.017Z,0.80
2023-05-06T08:48:48.725Z,1.00
2023-05-06T09:07:31.123Z,0.80
2023-05-06T09:26:13.128Z,1.30
2023-05-06T09:45:01.502Z,0.40
2023-05-06T10:03:38.785Z,1.00
2023-05-06T10:22:28.964Z,1.50
2023-05-06T10:41:18.201Z,1.60
2023-05-06T11:00:07.286Z,0.20
2023-05-06T11:18:56.125Z,0.50
2023-05-06T11:37:43.678Z,0.40
2023-05-06T11:56:04.591Z,1.00
2023-05-06T12:14:37.141Z,1.00
2023-05-06T12:33:15.136Z,1.20
2023-05-06T13:10:25.724Z,1.10
2023-05-06T13:29:10.203Z,1.00
2023-05-06T13:48:01.155Z,1.40
2023-05-06T14:25:22.775Z,1.10
2023-05-06T15:02:41.149Z,1.70
2023-05-06T15:58:05.899Z,2.10
2023-05-06T16:16:40.268Z,2.20
2023-05-06T16:35:22.392Z,2.40
2023-05-06T17:12:45.072Z,1.90
2023-05-06T17:31:25.846Z,2.50
2023-05-06T17:50:02.960Z,3.20
2023-05-06T18:08:40.517Z,3.00
2023-05-06T18:45:58.456Z,3.30
2023-05-06T19:04:32.511Z,4.30
2023-05-06T19:23:05.760Z,3.80
2023-05-06T20:00:22.490Z,3.10
2023-05-06T20:37:41.527Z,2.90
2023-05-06T20:56:22.458Z,2.40
2023-05-06T21:15:03.270Z,3.80
2023-05-06T21:33:43.169Z,4.00
2023-05-06T22:11:04.437Z,3.00
2023-05-06T22:29:44.057Z,3.40
2023-05-06T23:07:01.099Z,3.10
2023-05-06T23:25:42.383Z,5.80
2023-05-06T23:44:21.805Z,3.20
